sensor_id;sensor_type;location;lat;lon;timestamp;pressure;altitude;pressure_sealevel;temperature;humidity
63731;BME280;49747;51.334;6.830;2022-11-12T00:01:56;102643.53;;;11.19;79.32
63731;BME280;49747;51.334;6.830;2022-11-12T00:04:41;102643.00;;;11.11;80.07
63731;BME280;49747;51.334;6.830;2022-11-12T00:07:27;102648.41;;;11.09;79.79
63731;BME280;49747;51.334;6.830;2022-11-12T00:10:12;102652.78;;;11.10;79.60
63731;BME280;49747;51.334;6.830;2022-11-12T00:12:58;102658.16;;;11.09;79.62
63731;BME280;49747;51.334;6.830;2022-11-12T00:15:45;102647.06;;;10.99;80.16
63731;BME280;49747;51.334;6.830;2022-11-12T00:18:30;102652.97;;;11.06;79.61
63731;BME280;49747;51.334;6.830;2022-11-12T00:21:16;102654.09;;;11.00;79.75
63731;BME280;49747;51.334;6.830;2022-11-12T00:24:01;102648.78;;;11.00;79.68
63731;BME280;49747;51.334;6.830;2022-11-12T00:26:46;102647.38;;;10.92;79.68
63731;BME280;49747;51.334;6.830;2022-11-12T00:29:31;102650.38;;;10.84;80.21
63731;BME280;49747;51.334;6.830;2022-11-12T00:32:17;102641.81;;;10.77;80.48
63731;BME280;49747;51.334;6.830;2022-11-12T00:35:04;102654.38;;;10.74;80.35
63731;BME280;49747;51.334;6.830;2022-11-12T00:37:55;102658.22;;;10.67;80.71
63731;BME280;49747;51.334;6.830;2022-11-12T00:40:41;102658.72;;;10.54;80.95
63731;BME280;49747;51.334;6.830;2022-11-12T00:43:27;102668.59;;;10.51;80.74
63731;BME280;49747;51.334;6.830;2022-11-12T00:46:12;102659.16;;;10.44;80.66
63731;BME280;49747;51.334;6.830;2022-11-12T00:48:59;102661.38;;;10.32;81.03
63731;BME280;49747;51.334;6.830;2022-11-12T00:51:44;102666.84;;;10.29;81.81
63731;BME280;49747;51.334;6.830;2022-11-12T00:54:30;102667.00;;;10.25;81.52
63731;BME280;49747;51.334;6.830;2022-11-12T00:57:15;102674.31;;;10.18;81.54
63731;BME280;49747;51.334;6.830;2022-11-12T01:00:00;102672.75;;;10.12;81.72
63731;BME280;49747;51.334;6.830;2022-11-12T01:02:46;102677.47;;;10.06;81.71
63731;BME280;49747;51.334;6.830;2022-11-12T01:05:35;102663.56;;;9.99;81.94
63731;BME280;49747;51.334;6.830;2022-11-12T01:08:21;102669.72;;;10.00;81.11
63731;BME280;49747;51.334;6.830;2022-11-12T01:11:11;102678.84;;;9.93;81.62
63731;BME280;49747;51.334;6.830;2022-11-12T01:13:59;102671.03;;;9.90;81.80
63731;BME280;49747;51.334;6.830;2022-11-12T01:16:45;102669.63;;;9.79;81.92
63731;BME280;49747;51.334;6.830;2022-11-12T01:19:30;102667.94;;;9.77;82.04
63731;BME280;49747;51.334;6.830;2022-11-12T01:22:16;102676.16;;;9.71;81.63
63731;BME280;49747;51.334;6.830;2022-11-12T01:25:01;102678.91;;;9.68;81.58
63731;BME280;49747;51.334;6.830;2022-11-12T01:27:47;102684.56;;;9.58;82.19
63731;BME280;49747;51.334;6.830;2022-11-12T01:30:32;102672.84;;;9.64;81.64
63731;BME280;49747;51.334;6.830;2022-11-12T01:33:17;102671.91;;;9.65;81.48
63731;BME280;49747;51.334;6.830;2022-11-12T01:36:03;102668.09;;;9.74;81.28
63731;BME280;49747;51.334;6.830;2022-11-12T01:38:48;102664.38;;;9.78;81.36
63731;BME280;49747;51.334;6.830;2022-11-12T01:41:36;102663.38;;;9.80;80.91
63731;BME280;49747;51.334;6.830;2022-11-12T01:44:24;102661.78;;;9.76;80.79
63731;BME280;49747;51.334;6.830;2022-11-12T01:47:21;102668.09;;;9.74;80.76
63731;BME280;49747;51.334;6.830;2022-11-12T01:50:19;102654.06;;;9.70;80.84
63731;BME280;49747;51.334;6.830;2022-11-12T01:53:09;102653.31;;;9.67;80.55
63731;BME280;49747;51.334;6.830;2022-11-12T01:55:57;102659.88;;;9.56;81.23
63731;BME280;49747;51.334;6.830;2022-11-12T01:58:45;102657.31;;;9.53;80.88
63731;BME280;49747;51.334;6.830;2022-11-12T02:01:33;102659.94;;;9.55;80.81
63731;BME280;49747;51.334;6.830;2022-11-12T02:04:19;102661.72;;;9.54;80.82
63731;BME280;49747;51.334;6.830;2022-11-12T02:07:05;102647.72;;;9.51;80.85
63731;BME280;49747;51.334;6.830;2022-11-12T02:09:52;102649.53;;;9.49;81.28
63731;BME280;49747;51.334;6.830;2022-11-12T02:12:38;102652.25;;;9.47;81.00
63731;BME280;49747;51.334;6.830;2022-11-12T02:15:43;102646.19;;;9.44;81.03
63731;BME280;49747;51.334;6.830;2022-11-12T02:18:28;102646.19;;;9.44;80.95
63731;BME280;49747;51.334;6.830;2022-11-12T02:21:18;102642.84;;;9.38;81.25
63731;BME280;49747;51.334;6.830;2022-11-12T02:27:10;102644.94;;;9.30;81.58
63731;BME280;49747;51.334;6.830;2022-11-12T02:29:56;102645.97;;;9.26;81.70
63731;BME280;49747;51.334;6.830;2022-11-12T02:32:41;102646.16;;;9.20;81.78
63731;BME280;49747;51.334;6.830;2022-11-12T02:35:26;102655.84;;;9.21;81.80
63731;BME280;49747;51.334;6.830;2022-11-12T02:38:11;102651.47;;;9.20;81.88
63731;BME280;49747;51.334;6.830;2022-11-12T02:40:56;102655.97;;;9.18;81.81
63731;BME280;49747;51.334;6.830;2022-11-12T02:43:42;102662.06;;;9.20;81.61
63731;BME280;49747;51.334;6.830;2022-11-12T02:46:27;102662.94;;;9.21;81.87
63731;BME280;49747;51.334;6.830;2022-11-12T02:49:13;102652.41;;;9.19;81.94
63731;BME280;49747;51.334;6.830;2022-11-12T02:51:58;102651.72;;;9.14;81.93
63731;BME280;49747;51.334;6.830;2022-11-12T02:54:43;102650.03;;;9.11;81.69
63731;BME280;49747;51.334;6.830;2022-11-12T02:57:28;102655.31;;;9.11;81.42
63731;BME280;49747;51.334;6.830;2022-11-12T03:00:14;102653.59;;;9.10;80.86
63731;BME280;49747;51.334;6.830;2022-11-12T03:02:59;102659.09;;;9.04;81.12
63731;BME280;49747;51.334;6.830;2022-11-12T03:05:53;102666.13;;;9.05;81.48
63731;BME280;49747;51.334;6.830;2022-11-12T03:08:39;102660.97;;;9.02;81.66
63731;BME280;49747;51.334;6.830;2022-11-12T03:11:25;102665.25;;;9.05;81.42
63731;BME280;49747;51.334;6.830;2022-11-12T03:14:11;102658.16;;;9.05;80.83
63731;BME280;49747;51.334;6.830;2022-11-12T03:16:56;102652.84;;;9.07;81.37
63731;BME280;49747;51.334;6.830;2022-11-12T03:19:42;102654.66;;;9.05;81.29
63731;BME280;49747;51.334;6.830;2022-11-12T03:22:27;102652.94;;;9.04;81.29
63731;BME280;49747;51.334;6.830;2022-11-12T03:25:12;102646.88;;;9.00;80.72
63731;BME280;49747;51.334;6.830;2022-11-12T03:30:44;102642.44;;;9.01;80.45
63731;BME280;49747;51.334;6.830;2022-11-12T03:33:29;102646.19;;;8.95;80.86
63731;BME280;49747;51.334;6.830;2022-11-12T03:36:15;102643.25;;;9.03;80.95
63731;BME280;49747;51.334;6.830;2022-11-12T03:38:59;102647.03;;;8.96;80.71
63731;BME280;49747;51.334;6.830;2022-11-12T03:41:45;102642.66;;;8.95;80.93
63731;BME280;49747;51.334;6.830;2022-11-12T03:44:30;102643.69;;;8.91;80.81
63731;BME280;49747;51.334;6.830;2022-11-12T03:47:15;102650.72;;;8.92;80.50
63731;BME280;49747;51.334;6.830;2022-11-12T03:50:01;102639.28;;;8.89;80.75
63731;BME280;49747;51.334;6.830;2022-11-12T03:52:48;102641.03;;;8.91;80.28
63731;BME280;49747;51.334;6.830;2022-11-12T03:55:33;102637.56;;;8.88;80.17
63731;BME280;49747;51.334;6.830;2022-11-12T03:58:19;102631.34;;;8.89;80.05
63731;BME280;49747;51.334;6.830;2022-11-12T04:01:04;102631.34;;;8.89;80.13
63731;BME280;49747;51.334;6.830;2022-11-12T04:03:49;102623.50;;;8.86;80.25
63731;BME280;49747;51.334;6.830;2022-11-12T04:06:34;102633.28;;;8.84;80.28
63731;BME280;49747;51.334;6.830;2022-11-12T04:09:38;102627.13;;;8.84;80.30
63731;BME280;49747;51.334;6.830;2022-11-12T04:12:23;102625.34;;;8.84;80.17
63731;BME280;49747;51.334;6.830;2022-11-12T04:15:27;102627.13;;;8.84;80.21
63731;BME280;49747;51.334;6.830;2022-11-12T04:18:12;102623.63;;;8.83;80.04
63731;BME280;49747;51.334;6.830;2022-11-12T04:21:16;102618.38;;;8.82;80.54
63731;BME280;49747;51.334;6.830;2022-11-12T04:24:24;102620.97;;;8.83;80.34
63731;BME280;49747;51.334;6.830;2022-11-12T04:27:30;102615.72;;;8.82;80.51
63731;BME280;49747;51.334;6.830;2022-11-12T04:30:17;102611.50;;;8.76;80.49
63731;BME280;49747;51.334;6.830;2022-11-12T04:33:03;102607.19;;;8.74;80.77
63731;BME280;49747;51.334;6.830;2022-11-12T04:35:48;102606.41;;;8.70;80.60
63731;BME280;49747;51.334;6.830;2022-11-12T04:38:33;102615.50;;;8.63;80.33
63731;BME280;49747;51.334;6.830;2022-11-12T04:41:19;102608.31;;;8.40;81.76
63731;BME280;49747;51.334;6.830;2022-11-12T04:44:23;102609.75;;;8.50;81.36
63731;BME280;49747;51.334;6.830;2022-11-12T04:47:38;102602.56;;;8.54;80.68
63731;BME280;49747;51.334;6.830;2022-11-12T04:50:24;102596.28;;;8.56;80.38
63731;BME280;49747;51.334;6.830;2022-11-12T04:53:09;102600.56;;;8.60;80.94
63731;BME280;49747;51.334;6.830;2022-11-12T04:55:56;102601.47;;;8.59;80.61
63731;BME280;49747;51.334;6.830;2022-11-12T04:58:42;102597.03;;;8.60;80.70
63731;BME280;49747;51.334;6.830;2022-11-12T05:01:28;102601.53;;;8.58;80.82
63731;BME280;49747;51.334;6.830;2022-11-12T05:04:13;102598.81;;;8.59;80.42
63731;BME280;49747;51.334;6.830;2022-11-12T05:06:59;102584.81;;;8.56;80.22
63731;BME280;49747;51.334;6.830;2022-11-12T05:09:45;102597.13;;;8.57;80.45
63731;BME280;49747;51.334;6.830;2022-11-12T05:12:30;102588.38;;;8.55;80.19
63731;BME280;49747;51.334;6.830;2022-11-12T05:15:15;102581.38;;;8.54;80.22
63731;BME280;49747;51.334;6.830;2022-11-12T05:18:01;102575.25;;;8.52;80.27
63731;BME280;49747;51.334;6.830;2022-11-12T05:20:46;102576.88;;;8.56;79.83
63731;BME280;49747;51.334;6.830;2022-11-12T05:23:31;102572.69;;;8.49;80.35
63731;BME280;49747;51.334;6.830;2022-11-12T05:26:16;102574.38;;;8.51;80.09
63731;BME280;49747;51.334;6.830;2022-11-12T05:29:02;102567.19;;;8.55;80.54
63731;BME280;49747;51.334;6.830;2022-11-12T05:31:53;102574.47;;;8.48;80.47
63731;BME280;49747;51.334;6.830;2022-11-12T05:34:38;102565.75;;;8.45;80.09
63731;BME280;49747;51.334;6.830;2022-11-12T05:37:24;102572.00;;;8.44;80.04
63731;BME280;49747;51.334;6.830;2022-11-12T05:40:09;102563.97;;;8.45;80.35
63731;BME280;49747;51.334;6.830;2022-11-12T05:42:54;102557.91;;;8.42;79.90
63731;BME280;49747;51.334;6.830;2022-11-12T05:45:43;102557.97;;;8.40;80.08
63731;BME280;49747;51.334;6.830;2022-11-12T05:48:29;102551.97;;;8.33;80.07
63731;BME280;49747;51.334;6.830;2022-11-12T05:51:14;102554.59;;;8.35;80.13
63731;BME280;49747;51.334;6.830;2022-11-12T05:54:00;102554.84;;;8.27;80.22
63731;BME280;49747;51.334;6.830;2022-11-12T05:56:46;102559.22;;;8.28;79.91
63731;BME280;49747;51.334;6.830;2022-11-12T05:59:31;102559.38;;;8.24;79.59
63731;BME280;49747;51.334;6.830;2022-11-12T06:02:16;102555.28;;;8.13;80.09
63731;BME280;49747;51.334;6.830;2022-11-12T06:05:03;102563.38;;;8.10;79.91
63731;BME280;49747;51.334;6.830;2022-11-12T06:07:49;102565.09;;;8.11;79.96
63731;BME280;49747;51.334;6.830;2022-11-12T06:10:34;102574.97;;;8.06;80.43
63731;BME280;49747;51.334;6.830;2022-11-12T06:13:20;102574.09;;;8.06;80.07
63731;BME280;49747;51.334;6.830;2022-11-12T06:16:06;102573.38;;;8.01;80.22
63731;BME280;49747;51.334;6.830;2022-11-12T06:18:52;102584.16;;;7.95;80.19
63731;BME280;49747;51.334;6.830;2022-11-12T06:21:36;102594.06;;;7.88;80.42
63731;BME280;49747;51.334;6.830;2022-11-12T06:24:22;102594.06;;;7.88;80.61
63731;BME280;49747;51.334;6.830;2022-11-12T06:27:08;102599.34;;;7.88;81.06
63731;BME280;49747;51.334;6.830;2022-11-12T06:29:53;102601.16;;;7.87;81.02
63731;BME280;49747;51.334;6.830;2022-11-12T06:32:38;102609.16;;;7.84;81.60
63731;BME280;49747;51.334;6.830;2022-11-12T06:35:23;102597.88;;;7.79;82.00
63731;BME280;49747;51.334;6.830;2022-11-12T06:38:09;102605.59;;;7.85;81.87
63731;BME280;49747;51.334;6.830;2022-11-12T06:40:55;102604.59;;;7.89;81.62
63731;BME280;49747;51.334;6.830;2022-11-12T06:43:40;102610.88;;;7.85;81.79
63731;BME280;49747;51.334;6.830;2022-11-12T06:46:25;102608.31;;;7.84;82.17
63731;BME280;49747;51.334;6.830;2022-11-12T06:49:11;102616.16;;;7.87;81.96
63731;BME280;49747;51.334;6.830;2022-11-12T06:51:56;102609.00;;;7.90;81.73
63731;BME280;49747;51.334;6.830;2022-11-12T06:54:41;102611.59;;;7.92;82.11
63731;BME280;49747;51.334;6.830;2022-11-12T06:57:26;102615.91;;;7.95;82.32
63731;BME280;49747;51.334;6.830;2022-11-12T07:00:12;102617.44;;;8.02;81.71
63731;BME280;49747;51.334;6.830;2022-11-12T07:02:57;102615.69;;;8.02;81.79
63731;BME280;49747;51.334;6.830;2022-11-12T07:05:43;102624.44;;;8.04;81.51
63731;BME280;49747;51.334;6.830;2022-11-12T07:08:28;102620.19;;;7.99;82.24
63731;BME280;49747;51.334;6.830;2022-11-12T07:11:13;102631.50;;;8.04;81.90
63731;BME280;49747;51.334;6.830;2022-11-12T07:13:59;102639.44;;;8.04;81.74
63731;BME280;49747;51.334;6.830;2022-11-12T07:16:44;102628.91;;;8.02;81.42
63731;BME280;49747;51.334;6.830;2022-11-12T07:19:30;102630.72;;;8.00;81.96
63731;BME280;49747;51.334;6.830;2022-11-12T07:22:15;102632.44;;;8.03;81.33
63731;BME280;49747;51.334;6.830;2022-11-12T07:25:00;102635.94;;;8.03;81.90
63731;BME280;49747;51.334;6.830;2022-11-12T07:27:46;102632.59;;;7.97;82.06
63731;BME280;49747;51.334;6.830;2022-11-12T07:30:31;102631.69;;;7.98;81.77
63731;BME280;49747;51.334;6.830;2022-11-12T07:33:16;102628.84;;;8.04;81.87
63731;BME280;49747;51.334;6.830;2022-11-12T07:36:04;102617.34;;;8.05;81.91
63731;BME280;49747;51.334;6.830;2022-11-12T07:38:51;102624.00;;;8.18;81.98
63731;BME280;49747;51.334;6.830;2022-11-12T07:41:36;102629.94;;;8.25;81.94
63731;BME280;49747;51.334;6.830;2022-11-12T07:44:21;102637.75;;;8.29;82.55
63731;BME280;49747;51.334;6.830;2022-11-12T07:47:07;102637.53;;;8.37;82.69
63731;BME280;49747;51.334;6.830;2022-11-12T07:49:52;102634.59;;;8.46;82.67
63731;BME280;49747;51.334;6.830;2022-11-12T07:52:37;102629.84;;;8.56;82.90
63731;BME280;49747;51.334;6.830;2022-11-12T07:55:22;102621.84;;;8.57;82.46
63731;BME280;49747;51.334;6.830;2022-11-12T07:58:08;102631.75;;;8.77;82.22
63731;BME280;49747;51.334;6.830;2022-11-12T08:00:53;102625.34;;;8.84;82.43
63731;BME280;49747;51.334;6.830;2022-11-12T08:03:38;102627.56;;;8.97;81.48
63731;BME280;49747;51.334;6.830;2022-11-12T08:06:24;102637.78;;;9.07;81.46
63731;BME280;49747;51.334;6.830;2022-11-12T08:09:10;102635.47;;;9.23;81.21
63731;BME280;49747;51.334;6.830;2022-11-12T08:11:55;102627.72;;;9.41;80.67
63731;BME280;49747;51.334;6.830;2022-11-12T08:14:41;102632.47;;;11.08;74.43
63731;BME280;49747;51.334;6.830;2022-11-12T08:17:26;102628.56;;;12.66;68.52
63731;BME280;49747;51.334;6.830;2022-11-12T08:20:11;102618.06;;;13.96;63.58
63731;BME280;49747;51.334;6.830;2022-11-12T08:23:00;102617.72;;;14.94;59.73
63731;BME280;49747;51.334;6.830;2022-11-12T08:25:46;102613.16;;;16.09;56.08
63731;BME280;49747;51.334;6.830;2022-11-12T08:28:32;102603.84;;;16.54;53.20
63731;BME280;49747;51.334;6.830;2022-11-12T08:31:19;102609.75;;;16.86;52.29
63731;BME280;49747;51.334;6.830;2022-11-12T08:34:05;102599.59;;;17.54;51.52
63731;BME280;49747;51.334;6.830;2022-11-12T08:36:56;102602.63;;;18.22;49.88
63731;BME280;49747;51.334;6.830;2022-11-12T08:39:42;102598.69;;;18.75;48.63
63731;BME280;49747;51.334;6.830;2022-11-12T08:42:27;102606.09;;;19.17;46.25
63731;BME280;49747;51.334;6.830;2022-11-12T08:45:13;102610.03;;;19.81;45.58
63731;BME280;49747;51.334;6.830;2022-11-12T08:48:00;102604.25;;;21.74;58.39
63731;BME280;49747;51.334;6.830;2022-11-12T08:50:46;102602.47;;;23.65;45.81
63731;BME280;49747;51.334;6.830;2022-11-12T08:53:31;102603.09;;;22.17;41.46
63731;BME280;49747;51.334;6.830;2022-11-12T08:56:16;102613.03;;;21.56;40.58
63731;BME280;49747;51.334;6.830;2022-11-12T08:59:01;102591.50;;;22.73;40.11
63731;BME280;49747;51.334;6.830;2022-11-12T09:01:51;102598.09;;;22.41;39.23
63731;BME280;49747;51.334;6.830;2022-11-12T09:04:36;102606.94;;;22.53;39.19
63731;BME280;49747;51.334;6.830;2022-11-12T09:07:22;102602.97;;;23.23;37.83
63731;BME280;49747;51.334;6.830;2022-11-12T09:10:27;102605.16;;;24.02;37.27
63731;BME280;49747;51.334;6.830;2022-11-12T09:13:13;102609.97;;;23.16;37.06
63731;BME280;49747;51.334;6.830;2022-11-12T09:15:59;102612.44;;;23.47;37.13
63731;BME280;49747;51.334;6.830;2022-11-12T09:18:46;102602.31;;;24.40;35.21
63731;BME280;49747;51.334;6.830;2022-11-12T09:21:31;102603.69;;;24.88;34.50
63731;BME280;49747;51.334;6.830;2022-11-12T09:24:16;102607.34;;;25.22;34.52
63731;BME280;49747;51.334;6.830;2022-11-12T09:27:01;102614.66;;;25.64;34.66
63731;BME280;49747;51.334;6.830;2022-11-12T09:29:46;102611.94;;;25.64;33.90
63731;BME280;49747;51.334;6.830;2022-11-12T09:32:32;102615.88;;;25.70;33.37
63731;BME280;49747;51.334;6.830;2022-11-12T09:35:17;102619.03;;;25.57;32.83
63731;BME280;49747;51.334;6.830;2022-11-12T09:38:03;102619.03;;;25.57;32.99
63731;BME280;49747;51.334;6.830;2022-11-12T09:43:49;102611.56;;;24.01;34.12
63731;BME280;49747;51.334;6.830;2022-11-12T09:49:47;102612.63;;;22.11;36.87
63731;BME280;49747;51.334;6.830;2022-11-12T09:52:34;102632.53;;;20.34;39.59
63731;BME280;49747;51.334;6.830;2022-11-12T09:55:33;102629.50;;;19.84;41.06
63731;BME280;49747;51.334;6.830;2022-11-12T09:58:20;102623.75;;;19.66;41.97
63731;BME280;49747;51.334;6.830;2022-11-12T10:01:22;102633.88;;;19.07;42.78
63731;BME280;49747;51.334;6.830;2022-11-12T10:14:10;102630.28;;;18.25;46.06
63731;BME280;49747;51.334;6.830;2022-11-12T10:17:25;102631.81;;;17.92;46.48
63731;BME280;49747;51.334;6.830;2022-11-12T10:20:30;102613.25;;;17.76;46.37
63731;BME280;49747;51.334;6.830;2022-11-12T10:23:28;102610.53;;;17.63;48.08
63731;BME280;49747;51.334;6.830;2022-11-12T10:26:21;102616.78;;;17.77;47.78
63731;BME280;49747;51.334;6.830;2022-11-12T10:31:55;102613.59;;;17.46;48.59
63731;BME280;49747;51.334;6.830;2022-11-12T10:34:40;102606.00;;;17.40;48.95
63731;BME280;49747;51.334;6.830;2022-11-12T10:37:36;102610.63;;;16.99;49.62
63731;BME280;49747;51.334;6.830;2022-11-12T10:40:27;102615.44;;;16.82;51.09
63731;BME280;49747;51.334;6.830;2022-11-12T10:46:19;102605.13;;;17.01;52.26
63731;BME280;49747;51.334;6.830;2022-11-12T10:49:25;102604.53;;;16.31;52.93
63731;BME280;49747;51.334;6.830;2022-11-12T10:52:22;102595.25;;;16.09;53.57
63731;BME280;49747;51.334;6.830;2022-11-12T10:55:16;102598.09;;;16.20;54.33
63731;BME280;49747;51.334;6.830;2022-11-12T11:01:11;102584.09;;;16.42;54.57
63731;BME280;49747;51.334;6.830;2022-11-12T11:03:58;102588.75;;;16.26;55.47
63731;BME280;49747;51.334;6.830;2022-11-12T11:06:43;102578.78;;;15.88;56.59
63731;BME280;49747;51.334;6.830;2022-11-12T11:09:28;102573.34;;;16.02;56.48
63731;BME280;49747;51.334;6.830;2022-11-12T11:12:31;102579.19;;;15.53;58.11
63731;BME280;49747;51.334;6.830;2022-11-12T11:15:22;102566.84;;;15.65;58.08
63731;BME280;49747;51.334;6.830;2022-11-12T11:18:11;102571.31;;;16.06;57.19
63731;BME280;49747;51.334;6.830;2022-11-12T11:24:00;102571.50;;;16.03;58.36
63731;BME280;49747;51.334;6.830;2022-11-12T11:30:08;102563.59;;;16.01;58.25
63731;BME280;49747;51.334;6.830;2022-11-12T11:39:08;102562.09;;;16.10;58.31
63731;BME280;49747;51.334;6.830;2022-11-12T11:42:06;102556.56;;;16.13;58.80
63731;BME280;49747;51.334;6.830;2022-11-12T11:51:41;102542.69;;;16.07;59.63
63731;BME280;49747;51.334;6.830;2022-11-12T11:54:46;102545.66;;;16.29;59.46
63731;BME280;49747;51.334;6.830;2022-11-12T11:57:44;102544.56;;;16.32;58.86
63731;BME280;49747;51.334;6.830;2022-11-12T12:13:05;102532.41;;;16.13;58.16
63731;BME280;49747;51.334;6.830;2022-11-12T12:18:59;102531.28;;;16.30;58.14
63731;BME280;49747;51.334;6.830;2022-11-12T12:21:49;102529.59;;;16.42;57.42
63731;BME280;49747;51.334;6.830;2022-11-12T12:24:44;102531.16;;;16.32;57.84
63731;BME280;49747;51.334;6.830;2022-11-12T12:27:46;102523.88;;;16.21;57.98
63731;BME280;49747;51.334;6.830;2022-11-12T12:30:35;102522.25;;;16.31;58.94
63731;BME280;49747;51.334;6.830;2022-11-12T12:33:54;102521.59;;;16.27;58.24
63731;BME280;49747;51.334;6.830;2022-11-12T12:36:42;102518.84;;;16.29;59.12
63731;BME280;49747;51.334;6.830;2022-11-12T12:39:52;102510.69;;;16.31;58.22
63731;BME280;49747;51.334;6.830;2022-11-12T12:42:53;102507.06;;;16.44;57.95
63731;BME280;49747;51.334;6.830;2022-11-12T12:45:43;102504.47;;;16.43;58.33
63731;BME280;49747;51.334;6.830;2022-11-12T12:48:31;102509.50;;;16.47;58.12
63731;BME280;49747;51.334;6.830;2022-11-12T12:51:18;102503.53;;;16.44;58.68
63731;BME280;49747;51.334;6.830;2022-11-12T12:55:00;102504.56;;;16.29;58.45
63731;BME280;49747;51.334;6.830;2022-11-12T12:57:29;102504.91;;;16.37;58.22
63731;BME280;49747;51.334;6.830;2022-11-12T13:00:25;102505.31;;;16.31;59.07
63731;BME280;49747;51.334;6.830;2022-11-12T13:06:28;102501.66;;;16.32;57.99
63731;BME280;49747;51.334;6.830;2022-11-12T13:12:00;102504.91;;;16.37;58.15
63731;BME280;49747;51.334;6.830;2022-11-12T13:15:08;102508.31;;;16.39;56.94
63731;BME280;49747;51.334;6.830;2022-11-12T13:17:54;102508.78;;;16.45;57.22
63731;BME280;49747;51.334;6.830;2022-11-12T13:20:40;102507.59;;;16.49;57.81
63731;BME280;49747;51.334;6.830;2022-11-12T13:23:43;102507.47;;;16.51;57.97
63731;BME280;49747;51.334;6.830;2022-11-12T13:26:54;102510.94;;;16.53;57.93
63731;BME280;49747;51.334;6.830;2022-11-12T13:29:41;102497.31;;;16.69;96.30
63731;BME280;49747;51.334;6.830;2022-11-12T13:38:20;102493.13;;;16.52;62.50
63731;BME280;49747;51.334;6.830;2022-11-12T13:41:18;102503.63;;;16.55;61.40
63731;BME280;49747;51.334;6.830;2022-11-12T13:44:25;102499.13;;;16.56;61.24
63731;BME280;49747;51.334;6.830;2022-11-12T13:47:16;102486.47;;;16.58;60.57
63731;BME280;49747;51.334;6.830;2022-11-12T13:50:06;102488.16;;;16.59;60.51
63731;BME280;49747;51.334;6.830;2022-11-12T13:52:52;102501.25;;;16.63;60.32
63731;BME280;49747;51.334;6.830;2022-11-12T13:55:47;102485.28;;;16.62;60.45
63731;BME280;49747;51.334;6.830;2022-11-12T13:58:34;102498.50;;;16.65;59.99
63731;BME280;49747;51.334;6.830;2022-11-12T14:01:21;102493.00;;;16.66;60.13
63731;BME280;49747;51.334;6.830;2022-11-12T14:04:09;102492.91;;;16.68;59.99
63731;BME280;49747;51.334;6.830;2022-11-12T14:07:12;102482.19;;;16.68;60.24
63731;BME280;49747;51.334;6.830;2022-11-12T14:10:14;102478.59;;;16.67;60.11
63731;BME280;49747;51.334;6.830;2022-11-12T14:13:14;102472.50;;;16.65;60.33
63731;BME280;49747;51.334;6.830;2022-11-12T14:22:44;102479.91;;;16.62;60.30
63731;BME280;49747;51.334;6.830;2022-11-12T14:25:30;102472.84;;;16.61;60.35
63731;BME280;49747;51.334;6.830;2022-11-12T14:28:31;102474.66;;;16.60;60.13
63731;BME280;49747;51.334;6.830;2022-11-12T14:31:23;102465.00;;;16.58;60.35
63731;BME280;49747;51.334;6.830;2022-11-12T14:34:18;102470.38;;;16.58;60.17
63731;BME280;49747;51.334;6.830;2022-11-12T14:37:04;102466.06;;;16.55;60.33
63731;BME280;49747;51.334;6.830;2022-11-12T14:39:49;102456.31;;;16.54;60.80
63731;BME280;49747;51.334;6.830;2022-11-12T14:42:34;102454.69;;;16.51;61.08
63731;BME280;49747;51.334;6.830;2022-11-12T14:45:21;102451.06;;;16.53;60.89
63731;BME280;49747;51.334;6.830;2022-11-12T14:48:07;102446.75;;;16.50;61.01
63731;BME280;49747;51.334;6.830;2022-11-12T14:50:58;102452.88;;;16.52;61.09
63731;BME280;49747;51.334;6.830;2022-11-12T14:54:06;102442.88;;;16.54;61.02
63731;BME280;49747;51.334;6.830;2022-11-12T14:56:53;102443.94;;;16.51;60.87
63731;BME280;49747;51.334;6.830;2022-11-12T14:59:38;102445.56;;;16.54;61.10
63731;BME280;49747;51.334;6.830;2022-11-12T15:02:29;102436.66;;;16.54;61.00
63731;BME280;49747;51.334;6.830;2022-11-12T15:06:09;102440.53;;;16.49;61.15
63731;BME280;49747;51.334;6.830;2022-11-12T15:08:57;102434.53;;;16.46;61.21
63731;BME280;49747;51.334;6.830;2022-11-12T15:11:45;102438.38;;;16.42;61.44
63731;BME280;49747;51.334;6.830;2022-11-12T15:14:32;102441.19;;;16.40;61.49
63731;BME280;49747;51.334;6.830;2022-11-12T15:17:32;102441.50;;;16.36;61.65
63731;BME280;49747;51.334;6.830;2022-11-12T15:20:18;102440.94;;;16.31;61.74
63731;BME280;49747;51.334;6.830;2022-11-12T15:23:04;102438.72;;;16.24;62.18
63731;BME280;49747;51.334;6.830;2022-11-12T15:25:57;102443.31;;;16.22;62.03
63731;BME280;49747;51.334;6.830;2022-11-12T15:28:57;102435.69;;;16.16;62.84
63731;BME280;49747;51.334;6.830;2022-11-12T15:31:45;102441.25;;;16.13;62.66
63731;BME280;49747;51.334;6.830;2022-11-12T15:37:25;102433.84;;;16.04;63.23
63731;BME280;49747;51.334;6.830;2022-11-12T15:40:16;102433.28;;;15.99;63.49
63731;BME280;49747;51.334;6.830;2022-11-12T15:43:02;102428.25;;;15.94;63.87
63731;BME280;49747;51.334;6.830;2022-11-12T15:45:49;102419.56;;;15.91;64.03
63731;BME280;49747;51.334;6.830;2022-11-12T15:48:35;102414.63;;;15.85;64.36
63731;BME280;49747;51.334;6.830;2022-11-12T15:51:20;102407.00;;;15.79;64.58
63731;BME280;49747;51.334;6.830;2022-11-12T15:54:06;102411.69;;;15.75;64.75
63731;BME280;49747;51.334;6.830;2022-11-12T15:56:52;102412.84;;;15.71;65.03
63731;BME280;49747;51.334;6.830;2022-11-12T15:59:37;102416.63;;;15.68;65.24
63731;BME280;49747;51.334;6.830;2022-11-12T16:02:22;102408.84;;;15.64;65.41
63731;BME280;49747;51.334;6.830;2022-11-12T16:05:12;102406.47;;;15.59;65.60
63731;BME280;49747;51.334;6.830;2022-11-12T16:07:58;102406.69;;;15.56;65.99
63731;BME280;49747;51.334;6.830;2022-11-12T16:10:44;102398.94;;;15.51;66.30
63731;BME280;49747;51.334;6.830;2022-11-12T16:13:31;102405.47;;;15.47;66.50
63731;BME280;49747;51.334;6.830;2022-11-12T16:16:17;102405.97;;;15.40;66.91